sensor_id;sensor_type;location;lat;lon;timestamp;P1;durP1;ratioP1;P2;durP2;ratioP2
3979;SDS011;2004;52.452;13.120;2023-06-26T00:07:51;12.50;;;10.20;;
3979;SDS011;2004;52.452;13.120;2023-06-26T00:15:41;13.27;;;11.97;;
3979;SDS011;2004;52.452;13.120;2023-06-26T00:23:32;10.90;;;9.80;;
3979;SDS011;2004;52.452;13.120;2023-06-26T00:31:26;13.53;;;11.70;;
3979;SDS011;2004;52.452;13.120;2023-06-26T00:39:19;12.90;;;11.07;;
3979;SDS011;2004;52.452;13.120;2023-06-26T00:47:11;15.40;;;11.40;;
3979;SDS011;2004;52.452;13.120;2023-06-26T00:55:05;13.47;;;11.03;;
3979;SDS011;2004;52.452;13.120;2023-06-26T01:02:57;12.23;;;11.03;;
3979;SDS011;2004;52.452;13.120;2023-06-26T01:10:45;13.30;;;11.90;;
3979;SDS011;2004;52.452;13.120;2023-06-26T01:18:37;13.50;;;11.47;;
3979;SDS011;2004;52.452;13.120;2023-06-26T01:26:32;15.33;;;12.13;;
3979;SDS011;2004;52.452;13.120;2023-06-26T01:34:25;12.40;;;11.10;;
3979;SDS011;2004;52.452;13.120;2023-06-26T01:42:16;14.17;;;11.27;;
3979;SDS011;2004;52.452;13.120;2023-06-26T01:50:16;12.07;;;10.27;;
3979;SDS011;2004;52.452;13.120;2023-06-26T01:58:09;16.20;;;12.67;;
3979;SDS011;2004;52.452;13.120;2023-06-26T02:06:01;11.33;;;10.17;;
3979;SDS011;2004;52.452;13.120;2023-06-26T02:13:52;13.03;;;11.43;;
3979;SDS011;2004;52.452;13.120;2023-06-26T02:21:43;11.17;;;9.93;;
3979;SDS011;2004;52.452;13.120;2023-06-26T02:29:34;13.60;;;11.00;;
3979;SDS011;2004;52.452;13.120;2023-06-26T02:37:25;13.33;;;11.93;;
3979;SDS011;2004;52.452;13.120;2023-06-26T02:45:15;13.77;;;12.27;;
3979;SDS011;2004;52.452;13.120;2023-06-26T02:53:06;14.20;;;12.70;;
3979;SDS011;2004;52.452;13.120;2023-06-26T03:00:57;14.27;;;12.60;;
3979;SDS011;2004;52.452;13.120;2023-06-26T03:08:47;12.27;;;11.07;;
3979;SDS011;2004;52.452;13.120;2023-06-26T03:16:38;14.97;;;12.40;;
3979;SDS011;2004;52.452;13.120;2023-06-26T03:24:30;19.37;;;10.97;;
3979;SDS011;2004;52.452;13.120;2023-06-26T03:32:21;13.70;;;12.07;;
3979;SDS011;2004;52.452;13.120;2023-06-26T03:40:13;16.87;;;14.40;;
3979;SDS011;2004;52.452;13.120;2023-06-26T03:48:03;17.00;;;14.07;;
3979;SDS011;2004;52.452;13.120;2023-06-26T03:55:56;14.40;;;12.77;;
3979;SDS011;2004;52.452;13.120;2023-06-26T04:03:46;15.00;;;12.20;;
3979;SDS011;2004;52.452;13.120;2023-06-26T04:11:37;14.80;;;12.23;;
3979;SDS011;2004;52.452;13.120;2023-06-26T04:19:29;17.07;;;12.50;;
3979;SDS011;2004;52.452;13.120;2023-06-26T04:27:20;17.90;;;13.37;;
3979;SDS011;2004;52.452;13.120;2023-06-26T04:35:11;12.50;;;11.20;;
3979;SDS011;2004;52.452;13.120;2023-06-26T04:43:01;17.43;;;12.20;;
3979;SDS011;2004;52.452;13.120;2023-06-26T04:50:53;14.10;;;12.50;;
3979;SDS011;2004;52.452;13.120;2023-06-26T04:58:44;13.53;;;11.23;;
3979;SDS011;2004;52.452;13.120;2023-06-26T05:06:35;16.00;;;13.40;;
3979;SDS011;2004;52.452;13.120;2023-06-26T05:14:26;19.40;;;13.10;;
3979;SDS011;2004;52.452;13.120;2023-06-26T05:22:17;16.00;;;12.47;;
3979;SDS011;2004;52.452;13.120;2023-06-26T05:30:08;12.93;;;11.63;;
3979;SDS011;2004;52.452;13.120;2023-06-26T05:37:59;16.23;;;11.67;;
3979;SDS011;2004;52.452;13.120;2023-06-26T05:45:50;11.70;;;10.43;;
3979;SDS011;2004;52.452;13.120;2023-06-26T05:53:42;14.80;;;9.83;;
3979;SDS011;2004;52.452;13.120;2023-06-26T06:01:34;15.47;;;11.77;;
3979;SDS011;2004;52.452;13.120;2023-06-26T06:09:25;9.00;;;8.10;;
3979;SDS011;2004;52.452;13.120;2023-06-26T06:17:20;10.00;;;8.70;;
3979;SDS011;2004;52.452;13.120;2023-06-26T06:25:10;11.70;;;8.57;;
3979;SDS011;2004;52.452;13.120;2023-06-26T06:33:02;10.40;;;9.30;;
3979;SDS011;2004;52.452;13.120;2023-06-26T06:40:53;9.30;;;8.37;;
3979;SDS011;2004;52.452;13.120;2023-06-26T06:48:43;10.13;;;8.80;;
3979;SDS011;2004;52.452;13.120;2023-06-26T06:56:34;10.17;;;7.27;;
3979;SDS011;2004;52.452;13.120;2023-06-26T07:04:24;7.60;;;6.57;;
3979;SDS011;2004;52.452;13.120;2023-06-26T07:12:17;7.17;;;6.43;;
3979;SDS011;2004;52.452;13.120;2023-06-26T07:20:08;9.47;;;6.77;;
3979;SDS011;2004;52.452;13.120;2023-06-26T07:28:00;10.50;;;7.30;;
3979;SDS011;2004;52.452;13.120;2023-06-26T07:35:52;8.33;;;7.43;;
3979;SDS011;2004;52.452;13.120;2023-06-26T07:43:47;7.93;;;7.00;;
3979;SDS011;2004;52.452;13.120;2023-06-26T07:51:38;8.50;;;6.47;;
3979;SDS011;2004;52.452;13.120;2023-06-26T07:59:29;7.63;;;6.87;;
3979;SDS011;2004;52.452;13.120;2023-06-26T08:07:20;7.07;;;6.37;;
3979;SDS011;2004;52.452;13.120;2023-06-26T08:15:11;6.40;;;5.80;;
3979;SDS011;2004;52.452;13.120;2023-06-26T08:23:03;8.37;;;5.40;;
3979;SDS011;2004;52.452;13.120;2023-06-26T08:30:54;6.30;;;5.70;;
3979;SDS011;2004;52.452;13.120;2023-06-26T08:38:44;9.03;;;4.57;;
3979;SDS011;2004;52.452;13.120;2023-06-26T08:46:35;5.30;;;4.80;;
3979;SDS011;2004;52.452;13.120;2023-06-26T08:54:27;5.63;;;5.13;;
3979;SDS011;2004;52.452;13.120;2023-06-26T09:02:23;8.63;;;5.07;;
3979;SDS011;2004;52.452;13.120;2023-06-26T09:10:14;4.00;;;3.70;;
3979;SDS011;2004;52.452;13.120;2023-06-26T09:18:04;6.23;;;4.87;;
3979;SDS011;2004;52.452;13.120;2023-06-26T09:25:56;5.90;;;4.00;;
3979;SDS011;2004;52.452;13.120;2023-06-26T09:33:47;5.00;;;4.50;;
3979;SDS011;2004;52.452;13.120;2023-06-26T09:41:40;5.33;;;4.80;;
3979;SDS011;2004;52.452;13.120;2023-06-26T09:49:33;4.83;;;4.43;;
3979;SDS011;2004;52.452;13.120;2023-06-26T09:57:24;5.63;;;4.20;;
3979;SDS011;2004;52.452;13.120;2023-06-26T10:05:17;6.50;;;4.57;;
3979;SDS011;2004;52.452;13.120;2023-06-26T10:13:11;4.83;;;4.30;;
3979;SDS011;2004;52.452;13.120;2023-06-26T10:21:11;4.67;;;4.27;;
3979;SDS011;2004;52.452;13.120;2023-06-26T10:29:04;6.50;;;4.30;;
3979;SDS011;2004;52.452;13.120;2023-06-26T10:37:00;4.80;;;4.30;;
3979;SDS011;2004;52.452;13.120;2023-06-26T10:44:51;6.20;;;4.20;;
3979;SDS011;2004;52.452;13.120;2023-06-26T10:52:42;5.23;;;4.47;;
3979;SDS011;2004;52.452;13.120;2023-06-26T11:00:32;4.53;;;3.80;;
3979;SDS011;2004;52.452;13.120;2023-06-26T11:08:23;14.27;;;4.73;;
3979;SDS011;2004;52.452;13.120;2023-06-26T11:16:37;10.23;;;4.60;;
3979;SDS011;2004;52.452;13.120;2023-06-26T11:24:32;5.63;;;4.90;;
3979;SDS011;2004;52.452;13.120;2023-06-26T11:32:23;6.10;;;5.20;;
3979;SDS011;2004;52.452;13.120;2023-06-26T11:40:17;5.17;;;4.77;;
3979;SDS011;2004;52.452;13.120;2023-06-26T11:48:10;5.40;;;4.90;;
3979;SDS011;2004;52.452;13.120;2023-06-26T11:56:06;6.63;;;4.67;;
3979;SDS011;2004;52.452;13.120;2023-06-26T12:03:59;6.60;;;4.80;;
3979;SDS011;2004;52.452;13.120;2023-06-26T12:11:52;5.80;;;5.20;;
3979;SDS011;2004;52.452;13.120;2023-06-26T12:19:45;6.90;;;5.20;;
3979;SDS011;2004;52.452;13.120;2023-06-26T12:27:40;5.67;;;4.93;;
3979;SDS011;2004;52.452;13.120;2023-06-26T12:35:32;6.73;;;5.20;;
3979;SDS011;2004;52.452;13.120;2023-06-26T12:43:23;5.93;;;5.33;;
3979;SDS011;2004;52.452;13.120;2023-06-26T12:51:18;7.90;;;5.63;;
3979;SDS011;2004;52.452;13.120;2023-06-26T12:59:08;7.13;;;5.23;;
3979;SDS011;2004;52.452;13.120;2023-06-26T13:06:59;8.67;;;6.50;;
3979;SDS011;2004;52.452;13.120;2023-06-26T13:14:49;8.90;;;6.00;;
3979;SDS011;2004;52.452;13.120;2023-06-26T13:22:40;6.17;;;5.63;;
3979;SDS011;2004;52.452;13.120;2023-06-26T13:30:30;8.60;;;5.87;;
3979;SDS011;2004;52.452;13.120;2023-06-26T13:38:21;5.90;;;5.40;;
3979;SDS011;2004;52.452;13.120;2023-06-26T13:46:16;10.27;;;7.03;;
3979;SDS011;2004;52.452;13.120;2023-06-26T13:54:07;11.53;;;6.10;;
3979;SDS011;2004;52.452;13.120;2023-06-26T14:01:59;10.70;;;6.10;;
3979;SDS011;2004;52.452;13.120;2023-06-26T14:09:50;24.00;;;7.67;;
3979;SDS011;2004;52.452;13.120;2023-06-26T14:17:40;30.30;;;12.07;;
3979;SDS011;2004;52.452;13.120;2023-06-26T14:25:31;13.97;;;9.20;;
3979;SDS011;2004;52.452;13.120;2023-06-26T14:33:22;14.37;;;8.37;;
3979;SDS011;2004;52.452;13.120;2023-06-26T14:41:12;30.80;;;7.70;;
3979;SDS011;2004;52.452;13.120;2023-06-26T14:49:03;9.30;;;5.57;;
3979;SDS011;2004;52.452;13.120;2023-06-26T14:56:53;10.47;;;7.00;;
3979;SDS011;2004;52.452;13.120;2023-06-26T15:04:44;7.43;;;6.20;;
3979;SDS011;2004;52.452;13.120;2023-06-26T15:12:36;8.67;;;7.77;;
3979;SDS011;2004;52.452;13.120;2023-06-26T15:20:26;10.37;;;7.87;;
3979;SDS011;2004;52.452;13.120;2023-06-26T15:28:19;12.70;;;9.30;;
3979;SDS011;2004;52.452;13.120;2023-06-26T15:36:09;15.23;;;8.30;;
3979;SDS011;2004;52.452;13.120;2023-06-26T15:44:00;14.43;;;8.70;;
3979;SDS011;2004;52.452;13.120;2023-06-26T15:51:52;12.43;;;8.40;;
3979;SDS011;2004;52.452;13.120;2023-06-26T15:59:42;7.60;;;6.80;;
3979;SDS011;2004;52.452;13.120;2023-06-26T16:07:33;9.60;;;7.60;;
3979;SDS011;2004;52.452;13.120;2023-06-26T16:15:24;13.33;;;7.57;;
3979;SDS011;2004;52.452;13.120;2023-06-26T16:23:14;12.47;;;6.50;;
3979;SDS011;2004;52.452;13.120;2023-06-26T16:31:05;10.37;;;7.47;;
3979;SDS011;2004;52.452;13.120;2023-06-26T16:38:55;7.97;;;7.17;;
3979;SDS011;2004;52.452;13.120;2023-06-26T16:46:46;8.57;;;7.43;;
3979;SDS011;2004;52.452;13.120;2023-06-26T16:54:37;9.30;;;7.00;;
3979;SDS011;2004;52.452;13.120;2023-06-26T17:02:27;10.43;;;7.03;;
3979;SDS011;2004;52.452;13.120;2023-06-26T17:10:20;9.30;;;6.20;;
3979;SDS011;2004;52.452;13.120;2023-06-26T17:18:11;13.90;;;7.17;;
3979;SDS011;2004;52.452;13.120;2023-06-26T17:26:01;16.83;;;6.70;;
3979;SDS011;2004;52.452;13.120;2023-06-26T17:33:53;13.43;;;6.70;;
3979;SDS011;2004;52.452;13.120;2023-06-26T17:41:43;21.13;;;6.80;;
3979;SDS011;2004;52.452;13.120;2023-06-26T17:49:34;9.77;;;6.30;;
3979;SDS011;2004;52.452;13.120;2023-06-26T17:57:25;8.23;;;6.20;;
3979;SDS011;2004;52.452;13.120;2023-06-26T18:05:16;8.97;;;6.20;;
3979;SDS011;2004;52.452;13.120;2023-06-26T18:13:07;9.10;;;6.10;;
3979;SDS011;2004;52.452;13.120;2023-06-26T18:20:58;15.53;;;7.03;;
3979;SDS011;2004;52.452;13.120;2023-06-26T18:28:49;12.10;;;6.57;;
3979;SDS011;2004;52.452;13.120;2023-06-26T18:36:42;11.53;;;4.60;;
3979;SDS011;2004;52.452;13.120;2023-06-26T18:44:33;10.03;;;3.83;;
3979;SDS011;2004;52.452;13.120;2023-06-26T18:52:26;9.50;;;3.50;;
3979;SDS011;2004;52.452;13.120;2023-06-26T19:00:17;8.40;;;3.40;;
3979;SDS011;2004;52.452;13.120;2023-06-26T19:08:08;7.93;;;3.60;;
3979;SDS011;2004;52.452;13.120;2023-06-26T19:15:59;9.03;;;3.40;;
3979;SDS011;2004;52.452;13.120;2023-06-26T19:23:50;5.03;;;3.07;;
3979;SDS011;2004;52.452;13.120;2023-06-26T19:31:41;5.53;;;2.60;;
3979;SDS011;2004;52.452;13.120;2023-06-26T19:39:31;4.77;;;2.90;;
3979;SDS011;2004;52.452;13.120;2023-06-26T19:47:22;4.63;;;3.10;;
3979;SDS011;2004;52.452;13.120;2023-06-26T19:55:12;5.10;;;2.97;;
3979;SDS011;2004;52.452;13.120;2023-06-26T20:03:03;7.90;;;2.40;;
3979;SDS011;2004;52.452;13.120;2023-06-26T20:10:54;3.47;;;2.07;;
3979;SDS011;2004;52.452;13.120;2023-06-26T20:18:46;16.47;;;3.03;;
3979;SDS011;2004;52.452;13.120;2023-06-26T20:26:55;16.83;;;2.93;;
3979;SDS011;2004;52.452;13.120;2023-06-26T20:35:04;4.93;;;2.67;;
3979;SDS011;2004;52.452;13.120;2023-06-26T20:43:21;2.20;;;1.90;;
3979;SDS011;2004;52.452;13.120;2023-06-26T20:51:12;6.13;;;1.67;;
3979;SDS011;2004;52.452;13.120;2023-06-26T20:59:04;6.70;;;1.93;;
3979;SDS011;2004;52.452;13.120;2023-06-26T21:06:57;5.50;;;1.80;;
3979;SDS011;2004;52.452;13.120;2023-06-26T21:14:49;3.13;;;1.47;;
3979;SDS011;2004;52.452;13.120;2023-06-26T21:22:39;4.97;;;1.50;;
3979;SDS011;2004;52.452;13.120;2023-06-26T21:30:30;1.90;;;1.43;;
3979;SDS011;2004;52.452;13.120;2023-06-26T21:38:21;2.93;;;1.60;;
3979;SDS011;2004;52.452;13.120;2023-06-26T21:46:12;5.97;;;2.20;;
3979;SDS011;2004;52.452;13.120;2023-06-26T21:54:02;4.80;;;1.60;;
3979;SDS011;2004;52.452;13.120;2023-06-26T22:01:54;5.20;;;1.93;;
3979;SDS011;2004;52.452;13.120;2023-06-26T22:09:44;2.50;;;1.50;;
3979;SDS011;2004;52.452;13.120;2023-06-26T22:17:45;6.10;;;1.83;;
3979;SDS011;2004;52.452;13.120;2023-06-26T22:25:43;4.07;;;1.80;;
3979;SDS011;2004;52.452;13.120;2023-06-26T22:33:34;3.80;;;1.77;;
3979;SDS011;2004;52.452;13.120;2023-06-26T22:41:24;6.10;;;1.80;;
3979;SDS011;2004;52.452;13.120;2023-06-26T22:49:15;2.53;;;1.80;;
3979;SDS011;2004;52.452;13.120;2023-06-26T22:57:08;2.13;;;1.43;;
3979;SDS011;2004;52.452;13.120;2023-06-26T23:04:59;2.70;;;1.90;;
3979;SDS011;2004;52.452;13.120;2023-06-26T23:12:49;13.27;;;2.43;;
3979;SDS011;2004;52.452;13.120;2023-06-26T23:20:40;7.80;;;2.00;;
3979;SDS011;2004;52.452;13.120;2023-06-26T23:28:32;5.60;;;2.40;;
3979;SDS011;2004;52.452;13.120;2023-06-26T23:36:22;6.40;;;2.10;;
3979;SDS011;2004;52.452;13.120;2023-06-26T23:44:18;10.13;;;2.67;;
3979;SDS011;2004;52.452;13.120;2023-06-26T23:52:08;2.70;;;2.47;;
3979;SDS011;2004;52.452;13.120;2023-06-26T23:59:59;8.50;;;2.47;;
